createdAt,value
2023-01-04T00:01:25.158Z,3.62
2023-01-04T00:04:29.831Z,3.46
2023-01-04T00:07:33.628Z,3.49
2023-01-04T00:10:36.585Z,3.33
2023-01-04T00:13:39.723Z,3.32
2023-01-04T00:16:42.388Z,3.24
2023-01-04T00:19:45.999Z,3.19
2023-01-04T00:22:48.901Z,3.11
2023-01-04T00:25:51.824Z,3.11
2023-01-04T00:28:59.113Z,3.15
2023-01-04T00:32:02.372Z,3.16
2023-01-04T00:35:05.287Z,3.15
2023-01-04T00:38:08.336Z,3.06
2023-01-04T00:41:28.243Z,3.01
2023-01-04T00:44:36.152Z,2.99
2023-01-04T00:47:38.958Z,3.04
2023-01-04T00:50:44.115Z,2.92
2023-01-04T00:53:47.636Z,3.01
2023-01-04T00:56:51.579Z,2.95
2023-01-04T00:59:54.688Z,2.92
2023-01-04T01:02:58.279Z,2.91
2023-01-04T01:06:05.972Z,2.91
2023-01-04T01:09:09.909Z,2.89
2023-01-04T01:12:13.132Z,2.85
2023-01-04T01:15:16.876Z,2.90
2023-01-04T01:18:19.991Z,2.92
2023-01-04T01:21:26.236Z,2.96
2023-01-04T01:24:29.232Z,2.91
2023-01-04T01:27:32.896Z,2.87
2023-01-04T01:30:41.227Z,2.80
2023-01-04T01:33:46.804Z,2.83
2023-01-04T01:36:50.324Z,2.52
2023-01-04T01:39:54.085Z,2.54
2023-01-04T01:42:57.370Z,2.58
2023-01-04T01:46:02.100Z,2.45
2023-01-04T01:49:15.023Z,2.33
2023-01-04T01:52:22.553Z,2.39
2023-01-04T01:55:25.651Z,2.31
2023-01-04T01:58:34.164Z,2.39
2023-01-04T02:01:37.456Z,2.29
2023-01-04T02:04:44.042Z,2.23
2023-01-04T02:07:47.220Z,2.12
2023-01-04T02:10:50.935Z,2.14
2023-01-04T02:14:12.847Z,2.12
2023-01-04T02:17:29.507Z,2.08
2023-01-04T02:20:56.166Z,2.07
2023-01-04T02:24:21.048Z,2.03
2023-01-04T02:27:50.056Z,1.90
2023-01-04T02:31:32.744Z,1.88
2023-01-04T02:34:41.441Z,1.80
2023-01-04T02:37:55.756Z,1.71
2023-01-04T02:41:35.930Z,1.57
2023-01-04T02:44:54.797Z,1.43
2023-01-04T02:48:21.610Z,1.34
2023-01-04T02:51:31.564Z,1.36
2023-01-04T02:54:35.254Z,1.36
2023-01-04T02:58:01.969Z,1.37
2023-01-04T03:02:00.228Z,1.28
2023-01-04T03:05:35.042Z,1.16
2023-01-04T03:08:47.928Z,1.10
2023-01-04T03:12:19.605Z,1.05
2023-01-04T03:15:25.158Z,0.98
2023-01-04T03:18:32.118Z,0.84
2023-01-04T03:21:36.571Z,0.73
2023-01-04T03:24:58.255Z,0.74
2023-01-04T03:28:19.613Z,0.79
2023-01-04T03:31:45.508Z,0.82
2023-01-04T03:35:07.415Z,0.70
2023-01-04T03:38:57.398Z,0.70
2023-01-04T03:42:31.285Z,0.66
2023-01-04T03:45:59.253Z,0.57
2023-01-04T03:49:09.145Z,0.41
2023-01-04T03:52:13.657Z,0.41
2023-01-04T03:55:17.240Z,0.36
2023-01-04T03:58:21.062Z,0.34
2023-01-04T04:01:26.369Z,0.31
2023-01-04T04:04:48.469Z,0.33
2023-01-04T04:08:09.730Z,0.27
2023-01-04T04:11:30.557Z,0.22
2023-01-04T04:14:33.421Z,0.17
2023-01-04T04:17:36.567Z,0.14
2023-01-04T04:20:39.185Z,0.09
2023-01-04T04:23:45.225Z,0.02
2023-01-04T04:26:55.439Z,-0.02
2023-01-04T04:29:58.589Z,-0.05
2023-01-04T04:33:01.365Z,-0.07
2023-01-04T04:36:04.910Z,-0.08
2023-01-04T04:39:07.585Z,-0.17
2023-01-04T04:42:10.660Z,-0.18
2023-01-04T04:45:13.311Z,-0.15
2023-01-04T04:48:16.721Z,-0.17
2023-01-04T04:51:19.768Z,-0.22
2023-01-04T04:54:23.438Z,-0.37
2023-01-04T04:57:26.012Z,-0.37
2023-01-04T05:00:28.927Z,-0.35
2023-01-04T05:03:31.872Z,-0.31
2023-01-04T05:06:35.088Z,-0.36
2023-01-04T05:09:37.614Z,-0.34
2023-01-04T05:12:59.324Z,-0.39
2023-01-04T05:16:04.234Z,-0.42
2023-01-04T05:19:07.183Z,-0.42
2023-01-04T05:22:09.759Z,-0.47
2023-01-04T05:25:13.273Z,-0.47
2023-01-04T05:28:16.360Z,-0.50
2023-01-04T05:31:19.346Z,-0.55
2023-01-04T05:34:22.530Z,-0.58
2023-01-04T05:37:26.204Z,-0.58
2023-01-04T05:40:29.150Z,-0.61
2023-01-04T05:43:32.120Z,-0.60
2023-01-04T05:46:34.873Z,-0.73
2023-01-04T05:49:38.794Z,-0.73
2023-01-04T05:52:42.677Z,-0.75
2023-01-04T05:55:48.335Z,-0.73
2023-01-04T05:58:51.144Z,-0.75
2023-01-04T06:01:56.257Z,-0.69
2023-01-04T06:05:08.654Z,-0.76
2023-01-04T06:08:12.353Z,-0.79
2023-01-04T06:11:15.667Z,-0.80
2023-01-04T06:14:23.868Z,-0.85
2023-01-04T06:17:29.925Z,-0.83
2023-01-04T06:20:33.351Z,-0.83
2023-01-04T06:23:36.005Z,-0.86
2023-01-04T06:26:39.102Z,-0.82
2023-01-04T06:29:41.721Z,-0.83
2023-01-04T06:32:44.795Z,-0.85
2023-01-04T06:35:57.351Z,-0.79
2023-01-04T06:39:01.024Z,-0.86
2023-01-04T06:42:07.008Z,-0.87
2023-01-04T06:45:11.709Z,-0.90
2023-01-04T06:48:18.118Z,-0.87
2023-01-04T06:51:22.948Z,-0.80
2023-01-04T06:54:26.673Z,-0.90
2023-01-04T06:57:30.475Z,-0.86
2023-01-04T07:00:33.180Z,-0.81
2023-01-04T07:03:36.232Z,-0.77
2023-01-04T07:06:39.269Z,-0.77
2023-01-04T07:09:42.407Z,-0.74
2023-01-04T07:12:45.119Z,-0.72
2023-01-04T07:15:48.225Z,-0.74
2023-01-04T07:18:51.032Z,-0.70
2023-01-04T07:21:54.346Z,-0.71
2023-01-04T07:24:57.024Z,-0.68
2023-01-04T07:28:00.146Z,-0.69
2023-01-04T07:31:07.531Z,-0.68
2023-01-04T07:34:11.072Z,-0.62
2023-01-04T07:37:13.994Z,-0.60
2023-01-04T07:40:17.270Z,-0.58
2023-01-04T07:43:27.508Z,-0.58
2023-01-04T07:46:32.818Z,-0.62
2023-01-04T07:49:36.496Z,-0.60
2023-01-04T07:52:41.510Z,-0.56
2023-01-04T07:55:44.224Z,-0.62
2023-01-04T07:58:47.311Z,-0.61
2023-01-04T08:01:51.375Z,-0.61
2023-01-04T08:04:56.847Z,-0.51
2023-01-04T08:08:00.366Z,-0.55
2023-01-04T08:11:08.675Z,-0.44
2023-01-04T08:14:11.999Z,-0.37
2023-01-04T08:17:19.098Z,-0.30
2023-01-04T08:20:22.505Z,-0.21
2023-01-04T08:23:26.104Z,-0.15
2023-01-04T08:26:29.947Z,-0.16
2023-01-04T08:29:35.825Z,-0.07
2023-01-04T08:32:40.448Z,-0.03
2023-01-04T08:35:43.547Z,0.07
2023-01-04T08:38:59.496Z,0.16
2023-01-04T08:42:17.973Z,0.29
2023-01-04T08:45:23.436Z,0.36
2023-01-04T08:48:26.831Z,0.40
2023-01-04T08:51:29.605Z,0.62
2023-01-04T08:54:33.438Z,0.66
2023-01-04T08:57:37.199Z,0.70
2023-01-04T09:00:40.171Z,0.74
2023-01-04T09:03:43.125Z,0.93
2023-01-04T09:06:46.275Z,1.03
2023-01-04T09:09:52.825Z,1.14
2023-01-04T09:12:56.346Z,1.24
2023-01-04T09:16:10.767Z,1.41
2023-01-04T09:19:21.431Z,1.44
2023-01-04T09:22:24.843Z,1.52
2023-01-04T09:25:27.746Z,1.61
2023-01-04T09:28:30.267Z,1.74
2023-01-04T09:31:34.772Z,1.89
2023-01-04T09:34:38.253Z,1.86
2023-01-04T09:37:42.293Z,1.97
2023-01-04T09:40:55.135Z,1.99
2023-01-04T09:44:06.116Z,1.99
2023-01-04T09:47:30.148Z,2.16
2023-01-04T09:51:13.765Z,2.30
2023-01-04T09:54:21.215Z,2.40
2023-01-04T09:57:31.809Z,2.46
2023-01-04T10:00:44.047Z,2.50
2023-01-04T10:03:55.504Z,2.55
2023-01-04T10:07:04.688Z,2.72
2023-01-04T10:10:15.089Z,2.81
2023-01-04T10:13:17.955Z,2.96
2023-01-04T10:17:01.738Z,3.12
2023-01-04T10:23:44.603Z,3.23
2023-01-04T10:26:52.067Z,3.30
2023-01-04T10:30:30.333Z,3.30
2023-01-04T10:33:49.566Z,3.44
2023-01-04T10:36:58.123Z,3.35
2023-01-04T10:40:01.411Z,3.50
2023-01-04T10:44:10.621Z,3.57
2023-01-04T10:47:11.430Z,3.70
2023-01-04T10:50:20.270Z,3.71
2023-01-04T10:53:28.202Z,3.83
2023-01-04T10:56:33.244Z,3.99
2023-01-04T11:00:03.967Z,3.98
2023-01-04T11:03:30.157Z,4.19
2023-01-04T11:07:00.737Z,4.34
2023-01-04T11:10:16.076Z,4.42
2023-01-04T11:13:18.767Z,4.53
2023-01-04T11:16:21.923Z,4.66
2023-01-04T11:19:24.572Z,4.69
2023-01-04T11:22:40.420Z,4.73
2023-01-04T11:26:01.394Z,4.81
2023-01-04T11:29:07.202Z,4.89
2023-01-04T11:32:25.261Z,4.99
2023-01-04T11:35:50.943Z,5.17
2023-01-04T11:38:56.924Z,5.16
2023-01-04T11:42:04.792Z,5.22
2023-01-04T11:45:10.100Z,5.15
2023-01-04T11:48:15.440Z,5.25
2023-01-04T11:51:27.010Z,5.22
2023-01-04T11:54:30.050Z,5.28
2023-01-04T11:57:32.721Z,5.36
2023-01-04T12:00:35.674Z,5.32
2023-01-04T12:03:40.400Z,5.31
2023-01-04T12:06:53.212Z,5.28
2023-01-04T12:09:56.091Z,5.24
2023-01-04T12:13:01.153Z,5.29
2023-01-04T12:16:14.951Z,5.33
2023-01-04T12:19:18.784Z,5.38
2023-01-04T12:22:34.418Z,5.39
2023-01-04T12:25:44.062Z,5.46
2023-01-04T12:28:49.528Z,5.46
2023-01-04T12:32:12.467Z,5.46
2023-01-04T12:35:52.644Z,5.53
2023-01-04T12:38:55.780Z,5.49
2023-01-04T12:42:01.209Z,5.53
2023-01-04T12:45:11.370Z,5.56
2023-01-04T12:48:47.786Z,5.57
2023-01-04T12:52:12.799Z,5.41
2023-01-04T12:55:48.182Z,5.43
2023-01-04T12:59:26.258Z,5.44
2023-01-04T13:02:52.704Z,5.41
2023-01-04T13:06:06.536Z,5.44
2023-01-04T13:09:24.095Z,5.41
2023-01-04T13:12:56.868Z,5.43
2023-01-04T13:16:22.671Z,5.44
2023-01-04T13:19:29.113Z,5.48
2023-01-04T13:22:32.656Z,5.46
2023-01-04T13:25:36.413Z,5.45
2023-01-04T13:28:39.547Z,5.32
2023-01-04T13:32:12.294Z,5.36
2023-01-04T13:35:15.284Z,5.28
2023-01-04T13:38:18.249Z,5.16
2023-01-04T13:41:22.782Z,5.29
2023-01-04T13:48:22.019Z,5.23
2023-01-04T13:51:38.101Z,5.25
2023-01-04T13:54:40.902Z,5.18
2023-01-04T13:58:18.121Z,5.32
2023-01-04T14:01:32.701Z,5.31
2023-01-04T14:04:37.031Z,5.20
2023-01-04T14:07:43.318Z,5.37
2023-01-04T14:10:46.300Z,5.30
2023-01-04T14:13:49.122Z,5.30
2023-01-04T14:16:52.626Z,5.27
2023-01-04T14:20:06.016Z,5.32
2023-01-04T14:23:29.348Z,5.32
2023-01-04T14:26:33.612Z,5.31
2023-01-04T14:29:40.794Z,5.27
2023-01-04T14:32:59.654Z,5.30
2023-01-04T14:36:20.965Z,5.36
2023-01-04T14:39:27.161Z,5.30
2023-01-04T14:42:31.741Z,5.26
2023-01-04T14:45:34.413Z,5.26
2023-01-04T14:48:37.485Z,5.14
2023-01-04T14:51:45.725Z,5.10
2023-01-04T14:54:48.772Z,5.06
2023-01-04T14:57:51.402Z,5.03
2023-01-04T15:00:54.422Z,5.06
2023-01-04T15:03:57.249Z,5.02
2023-01-04T15:07:00.955Z,5.00
2023-01-04T15:10:05.526Z,5.00
2023-01-04T15:13:08.538Z,5.07
2023-01-04T15:16:14.445Z,5.10
2023-01-04T15:19:17.462Z,5.11
2023-01-04T15:22:20.139Z,5.14
2023-01-04T15:25:23.523Z,5.17
2023-01-04T15:28:27.408Z,5.08
2023-01-04T15:31:36.707Z,5.12
2023-01-04T15:34:46.579Z,5.12
2023-01-04T15:37:50.152Z,5.15
2023-01-04T15:40:52.818Z,5.08
2023-01-04T15:43:55.522Z,5.12
2023-01-04T15:46:59.898Z,5.19
2023-01-04T15:50:03.005Z,5.23
2023-01-04T15:53:06.451Z,5.25
2023-01-04T15:56:13.061Z,5.23
2023-01-04T15:59:15.733Z,5.18
2023-01-04T16:02:19.059Z,5.13
2023-01-04T16:05:21.949Z,5.09
2023-01-04T16:08:24.802Z,5.04
2023-01-04T16:11:27.423Z,5.05
2023-01-04T16:14:30.557Z,5.00
2023-01-04T16:17:33.187Z,5.00
2023-01-04T16:20:36.604Z,4.90
2023-01-04T16:23:39.310Z,4.94
2023-01-04T16:26:42.089Z,4.94
2023-01-04T16:29:44.826Z,4.96
2023-01-04T16:32:47.794Z,4.85
2023-01-04T16:35:57.292Z,4.79
2023-01-04T16:39:02.211Z,4.87
2023-01-04T16:42:10.592Z,4.82
2023-01-04T16:45:13.988Z,4.80
2023-01-04T16:48:18.651Z,4.86
2023-01-04T16:51:23.042Z,4.84
2023-01-04T16:54:25.553Z,4.87
2023-01-04T16:57:28.355Z,4.79
2023-01-04T17:00:31.110Z,4.72
2023-01-04T17:03:34.074Z,4.75
2023-01-04T17:06:41.848Z,4.76
2023-01-04T17:09:45.149Z,4.77
2023-01-04T17:12:48.994Z,4.75
2023-01-04T17:15:52.361Z,4.75
2023-01-04T17:18:56.313Z,4.73
2023-01-04T17:21:59.841Z,4.72
2023-01-04T17:25:03.601Z,4.78
2023-01-04T17:28:06.633Z,4.76
2023-01-04T17:31:13.326Z,4.79
2023-01-04T17:34:22.535Z,4.78
2023-01-04T17:37:26.381Z,4.80
2023-01-04T17:40:29.513Z,4.77
2023-01-04T17:43:32.235Z,4.83
2023-01-04T17:46:37.306Z,4.81
2023-01-04T17:49:40.219Z,4.86
2023-01-04T17:52:44.154Z,4.81
2023-01-04T17:55:47.327Z,4.81
2023-01-04T17:58:51.258Z,4.86
2023-01-04T18:01:54.997Z,4.81
2023-01-04T18:05:00.611Z,4.87
2023-01-04T18:08:04.485Z,4.93
2023-01-04T18:11:08.623Z,4.88
2023-01-04T18:14:14.241Z,4.95
2023-01-04T18:17:20.170Z,4.92
2023-01-04T18:20:25.330Z,4.95
2023-01-04T18:23:30.029Z,4.96
2023-01-04T18:26:53.479Z,4.95
2023-01-04T18:29:59.056Z,5.04
2023-01-04T18:33:02.274Z,5.01
2023-01-04T18:36:07.669Z,5.03
2023-01-04T18:39:14.061Z,5.04
2023-01-04T18:42:18.438Z,5.09
2023-01-04T18:45:22.325Z,5.09
2023-01-04T18:48:30.075Z,5.16
2023-01-04T18:51:34.115Z,5.15
2023-01-04T18:54:39.107Z,5.18
2023-01-04T18:57:44.331Z,5.16
2023-01-04T19:00:50.604Z,5.16
2023-01-04T19:03:54.959Z,5.18
2023-01-04T19:07:00.745Z,5.17
2023-01-04T19:10:06.072Z,5.17
2023-01-04T19:13:11.630Z,5.21
2023-01-04T19:16:20.079Z,5.30
2023-01-04T19:19:24.632Z,5.30
2023-01-04T19:22:28.117Z,5.29
2023-01-04T19:25:33.070Z,5.35
2023-01-04T19:28:37.635Z,5.39
2023-01-04T19:31:43.174Z,5.38
2023-01-04T19:34:49.632Z,5.46
2023-01-04T19:37:54.007Z,5.44
2023-01-04T19:40:59.638Z,5.45
2023-01-04T19:44:09.221Z,5.50
2023-01-04T19:47:20.044Z,5.60
2023-01-04T19:50:24.593Z,5.61
2023-01-04T19:53:28.076Z,5.66
2023-01-04T19:56:33.522Z,5.70
2023-01-04T19:59:38.380Z,5.75
2023-01-04T20:02:43.995Z,5.81
2023-01-04T20:05:48.789Z,5.85
2023-01-04T20:08:53.411Z,5.87
2023-01-04T20:11:57.841Z,5.90
2023-01-04T20:15:02.087Z,5.97
2023-01-04T20:18:13.418Z,5.97
2023-01-04T20:21:17.569Z,6.00
2023-01-04T20:24:21.643Z,6.03
2023-01-04T20:27:26.077Z,6.06
2023-01-04T20:30:29.636Z,6.12
2023-01-04T20:33:34.657Z,6.15
2023-01-04T20:36:40.746Z,6.17
2023-01-04T20:39:45.486Z,6.20
2023-01-04T20:43:11.131Z,6.21
2023-01-04T20:46:23.646Z,6.27
2023-01-04T20:49:29.044Z,6.29
2023-01-04T20:52:33.063Z,6.33
2023-01-04T20:55:41.027Z,6.31
2023-01-04T20:58:46.048Z,6.37
2023-01-04T21:01:50.555Z,6.38
2023-01-04T21:04:54.543Z,6.38
2023-01-04T21:08:01.488Z,6.44
2023-01-04T21:11:06.985Z,6.43
2023-01-04T21:14:12.302Z,6.47
2023-01-04T21:17:17.560Z,6.51
2023-01-04T21:20:22.030Z,6.55
2023-01-04T21:23:27.729Z,6.59
2023-01-04T21:26:30.790Z,6.64
2023-01-04T21:29:35.607Z,6.67
2023-01-04T21:32:38.725Z,6.72
2023-01-04T21:35:42.381Z,6.71
2023-01-04T21:38:45.561Z,6.71
2023-01-04T21:41:51.575Z,6.74
2023-01-04T21:44:54.225Z,6.74
2023-01-04T21:47:58.546Z,6.81
2023-01-04T21:51:02.104Z,6.81
2023-01-04T21:54:05.709Z,6.80
2023-01-04T21:57:08.306Z,6.84
2023-01-04T22:00:12.194Z,6.84
2023-01-04T22:03:14.740Z,6.89
2023-01-04T22:06:18.205Z,6.87
2023-01-04T22:09:20.808Z,6.87
2023-01-04T22:12:23.744Z,6.84
2023-01-04T22:15:26.402Z,6.95
2023-01-04T22:18:29.369Z,6.95
2023-01-04T22:21:32.280Z,6.98
2023-01-04T22:24:38.091Z,7.02
2023-01-04T22:27:40.753Z,7.01
2023-01-04T22:30:43.772Z,7.05
2023-01-04T22:33:46.479Z,7.06
2023-01-04T22:36:49.338Z,7.09
2023-01-04T22:39:51.882Z,7.06
2023-01-04T22:42:54.845Z,7.10
2023-01-04T22:46:01.167Z,7.16
2023-01-04T22:49:04.245Z,7.17
2023-01-04T22:52:06.671Z,7.25
2023-01-04T22:55:09.805Z,7.21
2023-01-04T22:58:12.222Z,7.26
2023-01-04T23:01:15.131Z,7.26
2023-01-04T23:04:18.020Z,7.28
2023-01-04T23:07:21.027Z,7.26
2023-01-04T23:10:24.681Z,7.28
2023-01-04T23:13:27.465Z,7.30
2023-01-04T23:16:33.121Z,7.32
2023-01-04T23:19:36.402Z,7.35
2023-01-04T23:22:38.921Z,7.35
2023-01-04T23:25:41.775Z,7.37
2023-01-04T23:28:45.307Z,7.41
2023-01-04T23:31:48.462Z,7.45
2023-01-04T23:34:51.640Z,7.46
2023-01-04T23:37:54.505Z,7.50
2023-01-04T23:40:56.948Z,7.48
2023-01-04T23:43:59.733Z,7.56
2023-01-04T23:50:07.883Z,7.62
2023-01-04T23:53:10.315Z,7.62
2023-01-04T23:56:16.495Z,7.63
2023-01-04T23:59:19.137Z,7.67
